Time;durP1;ratioP1;P1;durP2;ratioP2;P2;SDS_P1;SDS_P2;PMS_P1;PMS_P2;Temp;Humidity;BMP_temperature;BMP_pressure;BME280_temperature;BME280_humidity;BME280_pressure;Samples;Min_cycle;Max_cycle;Signal;HPM_P1;HPM_P2
2023/06/22 00:01:59;;;;;;;9.83;8.27;;;;;;;25.28;62.50;101517.84;5005793;28;19924;-89
2023/06/22 00:04:29;;;;;;;9.23;8.18;;;;;;;25.28;62.48;101525.00;4991392;28;20029;-90
2023/06/22 00:06:55;;;;;;;11.77;8.30;;;;;;;25.22;62.48;101509.78;5011644;28;20112;-89
2023/06/22 00:09:20;;;;;;;;;;;;;;;25.30;62.69;101518.75;5011838;28;20109;-87
2023/06/22 00:11:46;;;;;;;9.02;7.70;;;;;;;25.14;62.66;101487.44;5005120;28;20350;-88
2023/06/22 00:14:13;;;;;;;;;;;;;;;25.29;62.67;101511.59;5007078;28;20095;-88
2023/06/22 00:16:39;;;;;;;;;;;;;;;25.28;62.45;101515.19;5022377;28;19963;-88
2023/06/22 00:19:05;;;;;;;8.80;7.80;;;;;;;25.23;62.62;101516.94;5012862;28;19921;-89
2023/06/22 00:21:30;;;;;;;;;;;;;;;25.27;62.54;101515.16;4999142;28;20412;-88
2023/06/22 00:23:58;;;;;;;10.48;7.97;;;;;;;25.25;62.43;101515.19;4996646;28;19920;-88
2023/06/22 00:26:25;;;;;;;10.23;8.00;;;;;;;25.22;62.75;101524.94;5003282;28;20068;-90
2023/06/22 00:28:51;;;;;;;10.60;7.70;;;;;;;25.02;62.91;101493.63;5019245;28;20014;-91
2023/06/22 00:31:18;;;;;;;9.70;7.72;;;;;;;25.20;62.38;101530.28;4991171;28;20064;-91
2023/06/22 00:33:43;;;;;;;13.10;8.73;;;;;;;25.19;62.48;101526.69;4996449;28;20028;-90
2023/06/22 00:36:12;;;;;;;;;;;;;;;25.21;62.54;101525.81;5024336;28;20026;-90
2023/06/22 00:38:40;;;;;;;12.77;8.32;;;;;;;25.05;62.38;101514.13;5022663;28;19920;-88
2023/06/22 00:41:05;;;;;;;10.32;8.05;;;;;;;25.16;62.32;101536.47;5016948;28;20053;-91
2023/06/22 00:43:32;;;;;;;;;;;;;;;25.20;62.64;101540.97;5022369;28;20025;-89
2023/06/22 00:45:59;;;;;;;10.30;8.00;;;;;;;25.12;62.58;101538.22;5027000;28;20296;-90
2023/06/22 00:48:25;;;;;;;8.70;7.80;;;;;;;25.17;62.31;101538.25;5025248;28;20107;-88
2023/06/22 00:50:53;;;;;;;;;;;;;;;25.23;62.09;101542.75;5006168;28;20517;-88
2023/06/22 00:53:19;;;;;;;10.88;7.95;;;;;;;25.17;62.53;101541.81;5018236;28;19968;-88
2023/06/22 00:55:51;;;;;;;;;;;;;;;25.22;62.38;101538.31;5027780;28;20022;-88
2023/06/22 00:58:17;;;;;;;8.82;7.75;;;;;;;25.15;62.42;101532.00;5031447;28;19946;-90
2023/06/22 01:00:46;;;;;;;13.60;8.48;;;;;;;25.13;62.37;101532.00;5010779;28;20026;-89
2023/06/22 01:03:11;;;;;;;10.13;7.82;;;;;;;25.14;62.54;101539.13;5008532;28;20022;-90
2023/06/22 01:05:37;;;;;;;;;;;;;;;25.14;62.42;101531.09;4996540;28;20079;-90
2023/06/22 01:08:16;;;;;;;8.55;7.65;;;;;;;25.09;62.31;101521.28;5010680;28;20455;-90
2023/06/22 01:10:53;;;;;;;9.65;7.75;;;;;;;25.09;62.38;101523.97;4996246;28;20033;-89
2023/06/22 01:13:36;;;;;;;8.77;7.85;;;;;;;24.97;62.29;101506.06;5004680;28;20061;-90
2023/06/22 01:16:22;;;;;;;11.05;7.95;;;;;;;25.12;62.25;101537.31;5010827;28;20025;-84
2023/06/22 01:18:52;;;;;;;9.77;7.70;;;;;;;25.06;62.43;101518.56;4999952;28;20424;-90
2023/06/22 01:21:21;;;;;;;8.95;7.57;;;;;;;25.10;62.37;101529.28;5001058;28;20026;-90
2023/06/22 01:24:20;;;;;;;9.68;7.80;;;;;;;25.10;62.26;101537.31;4995508;28;20411;-90
2023/06/22 01:26:52;;;;;;;9.30;7.93;;;;;;;25.08;62.18;101536.44;5006234;28;20026;-90
2023/06/22 01:29:19;;;;;;;12.25;8.05;;;;;;;25.11;62.03;101540.91;4987355;28;20030;-89
2023/06/22 01:31:44;;;;;;;8.40;7.05;;;;;;;25.02;62.45;101524.78;4999791;28;20061;-89
2023/06/22 01:34:10;;;;;;;;;;;;;;;25.13;62.06;101534.66;4986574;28;20171;-88
2023/06/22 01:36:37;;;;;;;10.35;7.50;;;;;;;25.01;62.28;101525.69;5001107;28;19920;-89
2023/06/22 01:39:05;;;;;;;8.48;7.07;;;;;;;25.07;62.48;101529.28;4997964;28;20422;-92
2023/06/22 01:41:35;;;;;;;10.85;7.75;;;;;;;25.01;62.03;101529.25;5000251;28;20022;-89
2023/06/22 01:44:09;;;;;;;11.90;8.07;;;;;;;24.99;62.02;101514.97;5006085;28;20493;-91
2023/06/22 01:46:36;;;;;;;9.32;7.85;;;;;;;25.04;62.05;101531.94;4997601;28;20061;-90
2023/06/22 01:49:06;;;;;;;9.15;8.10;;;;;;;25.02;62.44;101528.38;4985506;28;20022;-89
2023/06/22 01:51:32;;;;;;;9.40;7.90;;;;;;;24.96;62.15;101517.63;5011670;28;20029;-89
2023/06/22 01:53:57;;;;;;;;;;;;;;;25.06;62.04;101535.53;5008093;28;20041;-89
2023/06/22 01:56:23;;;;;;;9.48;7.68;;;;;;;25.04;62.32;101542.63;4992392;28;20000;-88
2023/06/22 01:58:50;;;;;;;;;;;;;;;25.06;61.89;101534.59;4996252;28;20546;-87
2023/06/22 02:01:21;;;;;;;9.20;7.72;;;;;;;24.88;62.34;101514.91;4994292;28;19913;-89
2023/06/22 02:04:08;;;;;;;10.95;7.25;;;;;;;25.01;62.36;101542.59;5000668;28;20033;-91
2023/06/22 02:06:39;;;;;;;8.55;7.53;;;;;;;24.94;62.23;101533.66;4976401;28;20026;-90
2023/06/22 02:09:16;;;;;;;10.20;8.10;;;;;;;25.00;62.26;101538.16;5005314;28;20516;-93
2023/06/22 02:11:45;;;;;;;8.10;7.25;;;;;;;24.96;62.06;101550.59;4991018;28;20132;-94
2023/06/22 02:14:13;;;;;;;11.00;7.93;;;;;;;24.95;62.29;101551.47;5010739;28;20448;-93
2023/06/22 02:16:48;;;;;;;9.93;7.30;;;;;;;24.90;62.03;101542.53;4996100;28;20017;-92
2023/06/22 02:19:24;;;;;;;10.82;7.97;;;;;;;24.93;62.17;101550.59;4999271;28;20461;-92
2023/06/22 02:21:56;;;;;;;9.57;8.18;;;;;;;24.98;62.35;101553.28;5007190;28;20382;-94
2023/06/22 02:24:35;;;;;;;8.93;7.25;;;;;;;24.98;62.13;101553.28;5005685;28;20029;-94
2023/06/22 02:27:02;;;;;;;9.40;7.25;;;;;;;24.96;61.96;101553.25;5009474;28;20404;-94
2023/06/22 02:29:35;;;;;;;8.95;7.63;;;;;;;24.89;62.08;101547.84;4995858;28;20022;-94
2023/06/22 02:32:08;;;;;;;10.02;7.47;;;;;;;24.94;62.33;101556.81;4982753;28;20060;-92
2023/06/22 02:35:04;;;;;;;9.98;8.07;;;;;;;24.91;62.37;101547.00;5027018;28;20021;-92
2023/06/22 02:37:31;;;;;;;8.07;7.25;;;;;;;24.90;62.48;101547.00;5022598;28;20029;-93
2023/06/22 02:39:58;;;;;;;10.32;7.93;;;;;;;24.94;62.02;101555.03;5002537;28;20021;-94
2023/06/22 02:42:24;;;;;;;9.68;7.45;;;;;;;24.66;62.24;101508.53;4991883;28;20030;-94
2023/06/22 02:44:50;;;;;;;9.60;7.63;;;;;;;24.95;62.36;101562.16;4998797;28;20104;-93
2023/06/22 02:47:27;;;;;;;;;;;;;;;24.97;61.94;101563.06;5025356;28;20109;-94
2023/06/22 02:49:58;;;;;;;9.68;7.68;;;;;;;24.82;61.95;101549.59;4998874;28;19916;-93
2023/06/22 02:52:25;;;;;;;9.05;7.20;;;;;;;24.91;61.93;101576.41;5032033;28;20025;-93
2023/06/22 02:55:09;;;;;;;8.90;7.13;;;;;;;24.91;62.03;101571.06;4989709;28;20030;-93
2023/06/22 02:57:35;;;;;;;9.05;7.80;;;;;;;24.87;62.10;101582.59;4999448;28;20025;-93
2023/06/22 03:00:32;;;;;;;;;;;;;;;24.93;61.81;101584.41;4992871;28;20014;-94
2023/06/22 03:03:06;;;;;;;8.75;7.53;;;;;;;24.89;61.79;101587.94;5006551;28;19913;-94
2023/06/22 03:05:41;;;;;;;11.35;7.47;;;;;;;24.83;62.02;101577.19;4994845;28;20018;-94
2023/06/22 03:08:16;;;;;;;9.63;7.55;;;;;;;24.86;62.06;101580.78;5002634;28;20100;-95
2023/06/22 03:10:41;;;;;;;11.38;6.95;;;;;;;24.89;62.03;101596.88;4995569;28;20037;-94
2023/06/22 03:13:07;;;;;;;;;;;;;;;24.88;61.95;101604.84;5023494;28;20046;-95
2023/06/22 03:15:42;;;;;;;9.10;7.15;;;;;;;24.85;61.70;101595.06;5011847;28;20319;-95
2023/06/22 03:18:07;;;;;;;9.35;7.40;;;;;;;24.84;61.52;101601.25;5009556;28;20022;-94
2023/06/22 03:23:38;;;;;;;11.95;7.38;;;;;;;24.79;61.78;101582.53;5015214;28;19917;-94
2023/06/22 03:26:04;;;;;;;10.50;7.30;;;;;;;24.77;61.72;101594.09;4994249;28;20018;-95
2023/06/22 03:28:40;;;;;;;;;;;;;;;24.83;61.98;101580.78;5022126;28;20133;-94
2023/06/22 03:31:22;;;;;;;8.73;7.38;;;;;;;24.80;61.80;101588.75;5007048;28;19916;-93
2023/06/22 03:33:51;;;;;;;9.27;7.55;;;;;;;24.77;62.09;101581.63;5029438;28;20021;-95
2023/06/22 03:36:29;;;;;;;8.85;7.40;;;;;;;24.79;61.87;101595.88;5029548;28;20502;-94
2023/06/22 03:39:02;;;;;;;12.35;7.22;;;;;;;24.81;61.82;101605.66;5010816;28;20017;-93
2023/06/22 03:41:31;;;;;;;12.15;7.90;;;;;;;24.77;61.99;101597.63;5010394;28;20090;-93
2023/06/22 03:44:12;;;;;;;8.43;7.15;;;;;;;24.79;61.89;101611.03;5024348;28;20025;-94
2023/06/22 03:46:46;;;;;;;8.43;7.50;;;;;;;24.73;61.81;101601.16;5027364;28;20055;-93
2023/06/22 03:49:11;;;;;;;8.55;7.63;;;;;;;24.69;61.75;101594.00;5029560;28;20032;-93
2023/06/22 03:51:37;;;;;;;;;;;;;;;24.81;61.66;101594.97;5035101;28;20029;-92
2023/06/22 03:54:12;;;;;;;10.40;7.70;;;;;;;24.75;61.73;101593.19;5025294;28;19913;-95
2023/06/22 03:56:38;;;;;;;8.75;7.57;;;;;;;24.76;62.02;101602.97;5002389;28;20021;-92
2023/06/22 03:59:06;;;;;;;9.45;7.68;;;;;;;24.66;62.26;101585.97;5029346;28;20018;-92
2023/06/22 04:01:38;;;;;;;10.00;7.72;;;;;;;24.64;61.91;101579.72;5030118;28;20060;-91
2023/06/22 04:04:05;;;;;;;9.25;7.72;;;;;;;24.66;62.03;101577.97;4989287;28;20032;-91
2023/06/22 04:06:34;;;;;;;10.50;8.23;;;;;;;24.68;61.92;101585.97;4996166;28;20515;-90
2023/06/22 04:09:06;;;;;;;9.90;7.53;;;;;;;24.72;61.79;101588.72;5028903;28;20022;-94
2023/06/22 04:11:31;;;;;;;9.30;7.90;;;;;;;24.67;62.15;101589.53;5002679;28;20563;-91
2023/06/22 04:14:00;;;;;;;;;;;;;;;24.77;61.92;101602.09;5010088;28;20077;-89
2023/06/22 04:16:40;;;;;;;7.85;7.05;;;;;;;24.70;61.90;101598.47;5016106;28;19913;-93
2023/06/22 04:19:05;;;;;;;9.13;7.57;;;;;;;24.68;62.42;101604.66;5005402;28;20413;-90
2023/06/22 04:21:31;;;;;;;;;;;;;;;24.72;62.44;101604.75;5005870;28;20030;-87
2023/06/22 04:23:57;;;;;;;8.75;7.47;;;;;;;24.67;62.22;101611.78;5009018;28;20356;-88
2023/06/22 04:26:23;;;;;;;10.68;7.65;;;;;;;24.64;62.32;101606.44;5008394;28;20558;-87
2023/06/22 04:28:51;;;;;;;;;;;;;;;24.71;62.29;101610.94;5016645;28;20101;-87
2023/06/22 04:31:20;;;;;;;9.55;7.93;;;;;;;24.66;62.66;101615.34;4999630;28;19918;-87
2023/06/22 04:33:46;;;;;;;10.95;7.60;;;;;;;24.65;62.36;101616.22;5002243;28;20533;-87
2023/06/22 04:36:13;;;;;;;;;;;;;;;24.68;62.70;101620.69;5007110;28;20029;-88
2023/06/22 04:38:39;;;;;;;8.27;7.40;;;;;;;24.57;62.44;101597.47;4982346;28;19917;-86
2023/06/22 04:41:06;;;;;;;7.60;6.82;;;;;;;24.68;62.09;101628.72;4997456;28;20062;-87
2023/06/22 04:43:33;;;;;;;9.88;7.40;;;;;;;24.65;62.05;101629.56;4999741;28;20030;-87
2023/06/22 04:46:03;;;;;;;7.47;6.68;;;;;;;24.70;61.75;101626.94;4999324;28;20045;-88
2023/06/22 04:48:32;;;;;;;8.10;6.95;;;;;;;24.73;61.68;101635.00;5005310;28;20025;-87
2023/06/22 04:51:03;;;;;;;7.97;7.03;;;;;;;24.71;62.06;101632.31;5006631;28;20030;-88
2023/06/22 04:53:29;;;;;;;8.25;7.28;;;;;;;24.59;61.94;101621.50;5008781;28;20462;-87
2023/06/22 04:55:55;;;;;;;;;;;;;;;24.69;61.99;101634.06;5001446;28;20619;-89
2023/06/22 04:58:21;;;;;;;8.35;7.35;;;;;;;24.65;62.55;101640.25;5006749;28;20003;-89
2023/06/22 05:00:47;;;;;;;;;;;;;;;24.66;62.37;101642.06;5012671;28;20027;-89
2023/06/22 05:03:13;;;;;;;8.38;6.82;;;;;;;24.65;61.82;101634.03;5015987;28;20388;-87
2023/06/22 05:05:39;;;;;;;;;;;;;;;24.66;62.61;101635.81;5000711;28;20031;-86
2023/06/22 05:08:06;;;;;;;8.60;7.22;;;;;;;24.72;61.91;101635.88;4992301;28;19916;-87
2023/06/22 05:10:33;;;;;;;7.90;7.10;;;;;;;24.64;61.78;101629.56;5003869;28;20084;-88
2023/06/22 05:12:59;;;;;;;7.25;6.55;;;;;;;24.73;61.59;101645.69;5017891;28;20053;-87
2023/06/22 05:15:27;;;;;;;;;;;;;;;24.73;61.59;101640.34;5029964;28;20037;-87
2023/06/22 05:17:53;;;;;;;7.28;6.53;;;;;;;24.76;61.57;101651.06;5009450;28;19995;-87
2023/06/22 05:20:19;;;;;;;;;;;;;;;24.75;61.54;101654.63;5014383;28;20483;-87
2023/06/22 05:22:44;;;;;;;7.55;6.57;;;;;;;24.75;61.45;101643.94;5018582;28;19917;-87
2023/06/22 05:25:10;;;;;;;;;;;;;;;24.75;61.76;101649.28;4999212;28;20040;-87
2023/06/22 05:27:39;;;;;;;7.70;6.72;;;;;;;24.71;61.69;101645.66;5022921;28;19913;-87
2023/06/22 05:30:08;;;;;;;7.90;7.10;;;;;;;24.74;61.66;101648.38;5027199;28;20057;-85
2023/06/22 05:32:36;;;;;;;7.57;6.88;;;;;;;24.61;61.51;101617.06;5003255;28;20097;-88
2023/06/22 05:35:03;;;;;;;7.68;6.82;;;;;;;24.58;61.64;101611.72;5003696;28;20079;-86
2023/06/22 05:37:30;;;;;;;7.93;6.93;;;;;;;24.73;61.43;101638.56;5012925;28;20025;-87
2023/06/22 05:39:57;;;;;;;7.22;6.53;;;;;;;24.67;61.56;101629.59;5017402;28;20033;-89
2023/06/22 05:42:23;;;;;;;7.78;6.97;;;;;;;24.75;61.38;101650.16;4989868;28;20425;-88
2023/06/22 05:44:48;;;;;;;;;;;;;;;24.73;61.50;101638.56;5029428;28;20028;-89
2023/06/22 05:47:14;;;;;;;7.85;6.50;;;;;;;24.72;61.49;101643.88;5029130;28;20364;-87
2023/06/22 05:49:39;;;;;;;;;;;;;;;24.71;61.62;101643.00;5023736;28;20034;-88
2023/06/22 05:52:05;;;;;;;7.20;6.47;;;;;;;24.63;61.52;101628.66;5009497;28;19960;-89
2023/06/22 05:54:30;;;;;;;;;;;;;;;24.68;61.40;101645.66;5025769;28;20512;-87
2023/06/22 05:56:56;;;;;;;7.55;6.65;;;;;;;24.67;61.69;101653.63;5005426;28;19917;-89
2023/06/22 05:59:22;;;;;;;;;;;;;;;24.66;61.75;101651.84;5020208;28;20025;-89
2023/06/22 06:01:50;;;;;;;6.93;6.22;;;;;;;24.65;61.73;101650.06;5021410;28;19948;-89
2023/06/22 06:04:19;;;;;;;7.63;6.93;;;;;;;24.65;61.88;101650.94;5010173;28;20036;-88
2023/06/22 06:06:46;;;;;;;7.63;6.82;;;;;;;24.67;61.80;101650.97;5022440;28;20029;-90
2023/06/22 06:09:12;;;;;;;7.32;6.63;;;;;;;24.52;62.07;101627.69;5025594;28;20029;-87
2023/06/22 06:11:37;;;;;;;;;;;;;;;24.63;61.97;101654.50;5024312;28;20032;-90
2023/06/22 06:14:03;;;;;;;8.02;6.82;;;;;;;24.65;61.94;101658.06;4991752;28;19956;-90
2023/06/22 06:16:30;;;;;;;;;;;;;;;24.67;61.63;101656.31;5006998;28;20677;-90
2023/06/22 06:19:01;;;;;;;7.13;6.43;;;;;;;24.66;61.87;101655.44;5006380;28;19996;-92
2023/06/22 06:21:36;;;;;;;7.60;6.80;;;;;;;24.64;62.08;101662.53;5001908;28;20390;-91
2023/06/22 06:24:02;;;;;;;7.43;6.72;;;;;;;24.65;61.64;101660.75;5007046;28;20112;-91
2023/06/22 06:26:32;;;;;;;7.47;6.78;;;;;;;24.67;61.71;101664.31;5007466;28;20022;-91
2023/06/22 06:29:00;;;;;;;7.75;6.95;;;;;;;24.62;61.66;101647.34;5008289;28;20025;-92
2023/06/22 06:31:35;;;;;;;7.60;6.68;;;;;;;24.67;61.82;101659.88;4995198;28;20026;-96
2023/06/22 06:34:02;;;;;;;8.25;7.20;;;;;;;24.67;61.61;101653.63;4993052;28;20030;-87
2023/06/22 06:36:30;;;;;;;7.50;6.80;;;;;;;24.63;62.07;101647.38;5008831;28;20038;-91
2023/06/22 06:38:55;;;;;;;7.90;7.10;;;;;;;24.50;61.79;101630.31;4987045;28;20034;-88
2023/06/22 06:41:21;;;;;;;;;;;;;;;24.67;61.70;101657.19;5006523;28;20032;-84
2023/06/22 06:43:46;;;;;;;10.60;7.53;;;;;;;24.79;61.89;101661.78;5013005;28;19948;-82
2023/06/22 06:46:12;;;;;;;;;;;;;;;24.85;61.30;101652.91;5006290;28;20512;-90
2023/06/22 06:48:39;;;;;;;9.48;7.70;;;;;;;24.60;61.58;101625.97;5000711;28;19920;-89
2023/06/22 06:51:06;;;;;;;9.20;7.70;;;;;;;24.71;62.07;101661.69;5013490;28;20030;-88
2023/06/22 06:53:32;;;;;;;8.77;7.40;;;;;;;24.55;62.00;101638.38;5007923;28;20030;-89
2023/06/22 06:55:58;;;;;;;11.23;7.97;;;;;;;24.59;62.22;101645.53;4998205;28;20026;-90
2023/06/22 06:58:23;;;;;;;;;;;;;;;24.70;62.36;101667.00;5004650;28;20038;-89
2023/06/22 07:00:49;;;;;;;11.68;7.90;;;;;;;24.71;62.69;101668.81;4999280;28;19951;-90
2023/06/22 07:03:15;;;;;;;;;;;;;;;24.71;62.73;101667.03;5005396;28;20375;-90
2023/06/22 07:05:41;;;;;;;16.00;8.02;;;;;;;24.71;62.90;101667.03;4986821;28;19914;-89
2023/06/22 07:08:06;;;;;;;;;;;;;;;24.72;63.90;101678.59;5009117;28;20556;-89
2023/06/22 07:10:32;;;;;;;14.27;8.43;;;;;;;24.65;63.88;101644.72;5015282;28;19909;-88
2023/06/22 07:12:57;;;;;;;;;;;;;;;24.81;64.79;101677.81;5017770;28;20076;-89
2023/06/22 07:15:23;;;;;;;21.80;9.48;;;;;;;24.79;66.11;101673.34;5028046;28;19917;-89
2023/06/22 07:17:48;;;;;;;;;;;;;;;24.79;66.52;101676.03;5020117;28;20060;-88
2023/06/22 07:20:14;;;;;;;23.50;9.80;;;;;;;24.69;67.15;101658.13;5023209;28;19917;-85
2023/06/22 07:22:40;;;;;;;;;;;;;;;24.81;67.34;101681.41;5027874;28;20029;-86
2023/06/22 07:25:09;;;;;;;15.60;8.77;;;;;;;24.79;66.38;101681.38;5014007;28;20493;-88
2023/06/22 07:27:37;;;;;;;25.65;9.10;;;;;;;24.82;65.10;101675.16;5030544;28;20029;-89
2023/06/22 07:30:04;;;;;;;14.32;8.60;;;;;;;24.77;63.59;101664.44;5016923;28;20029;-88
2023/06/22 07:32:29;;;;;;;12.00;8.15;;;;;;;24.80;63.02;101663.56;4999621;28;20476;-88
2023/06/22 07:34:55;;;;;;;;;;;;;;;24.88;62.68;101685.03;5018759;28;20097;-88
2023/06/22 07:37:21;;;;;;;15.07;8.20;;;;;;;24.87;63.00;101683.22;5011984;28;19913;-89
2023/06/22 07:39:46;;;;;;;;;;;;;;;24.85;63.41;101683.22;5011359;28;20114;-88
2023/06/22 07:42:12;;;;;;;14.27;7.85;;;;;;;24.86;62.95;101676.97;5001079;28;20376;-87
2023/06/22 07:44:37;;;;;;;;;;;;;;;24.90;62.83;101685.94;5032299;28;20096;-89
2023/06/22 07:47:03;;;;;;;15.30;8.65;;;;;;;24.90;62.30;101689.50;4996444;28;19960;-90
2023/06/22 07:49:29;;;;;;;;;;;;;;;24.93;62.42;101685.94;5009202;28;20522;-88
2023/06/22 07:51:55;;;;;;;16.73;8.98;;;;;;;24.91;62.19;101685.03;5003472;28;19916;-91
2023/06/22 07:54:20;;;;;;;;;;;;;;;24.94;61.97;101677.94;5026771;28;20029;-89
2023/06/22 07:56:46;;;;;;;14.95;8.13;;;;;;;24.88;61.91;101659.19;5004347;28;19914;-88
2023/06/22 07:59:12;;;;;;;13.63;8.43;;;;;;;24.93;62.00;101669.91;5027998;28;20037;-89
2023/06/22 08:01:37;;;;;;;;;;;;;;;24.98;61.88;101685.13;5027136;28;20037;-88
2023/06/22 08:04:03;;;;;;;16.08;8.20;;;;;;;24.96;61.53;101677.97;5031174;28;19908;-88
2023/06/22 08:06:30;;;;;;;;;;;;;;;24.96;61.60;101681.53;5032084;28;20036;-86
2023/06/22 08:08:56;;;;;;;15.23;8.40;;;;;;;24.97;61.53;101680.63;5032335;28;19909;-88
2023/06/22 08:11:23;;;;;;;13.10;7.90;;;;;;;24.92;61.57;101671.69;5002466;28;20038;-90
2023/06/22 08:13:49;;;;;;;16.17;8.60;;;;;;;24.95;61.49;101690.41;5020327;28;20049;-89
2023/06/22 08:16:16;;;;;;;;;;;;;;;24.97;61.37;101674.41;5033724;28;20076;-90
2023/06/22 08:18:41;;;;;;;16.45;8.38;;;;;;;24.95;61.46;101671.72;5025215;28;19913;-88
2023/06/22 08:21:07;;;;;;;;;;;;;;;24.99;61.35;101680.66;5007155;28;20041;-88
2023/06/22 08:23:32;;;;;;;16.70;8.70;;;;;;;24.93;61.05;101672.59;4990382;28;19908;-90
2023/06/22 08:25:58;;;;;;;;;;;;;;;24.97;61.17;101677.97;5023485;28;20436;-88
2023/06/22 08:28:23;;;;;;;16.80;8.70;;;;;;;24.90;61.08;101678.81;5024190;28;19914;-90
2023/06/22 08:30:49;;;;;;;;;;;;;;;24.94;60.96;101682.41;5030731;28;20084;-88
2023/06/22 08:33:14;;;;;;;18.00;8.98;;;;;;;24.95;60.90;101674.38;5023271;28;20392;-87
2023/06/22 08:35:40;;;;;;;;;;;;;;;24.94;60.99;101677.94;5021086;28;20076;-87
2023/06/22 08:38:07;;;;;;;16.05;8.50;;;;;;;24.82;60.86;101664.47;4997335;28;19920;-87
2023/06/22 08:40:33;;;;;;;15.55;8.38;;;;;;;24.91;60.63;101671.66;5002797;28;20152;-89
2023/06/22 08:42:58;;;;;;;;;;;;;;;24.94;60.63;101677.06;5029543;28;20121;-86
2023/06/22 08:45:24;;;;;;;12.77;8.43;;;;;;;24.85;60.54;101669.84;5008605;28;19916;-88
2023/06/22 08:47:49;;;;;;;;;;;;;;;24.94;60.39;101685.97;5005841;28;20492;-87
2023/06/22 08:50:15;;;;;;;14.98;8.25;;;;;;;24.81;60.70;101664.44;5024746;28;20376;-87
2023/06/22 08:52:43;;;;;;;;;;;;;;;24.96;60.70;101684.19;5024556;28;20487;-88
2023/06/22 08:55:10;;;;;;;13.73;8.30;;;;;;;24.93;60.29;101680.59;5014958;28;19913;-88
2023/06/22 08:57:39;;;;;;;15.07;8.60;;;;;;;24.84;60.43;101659.16;5019190;28;20056;-90
2023/06/22 09:00:17;;;;;;;11.88;8.10;;;;;;;24.88;60.41;101667.19;5016216;28;20037;-92
2023/06/22 09:02:44;;;;;;;11.93;8.55;;;;;;;24.90;60.33;101660.09;5013493;28;20106;-91
2023/06/22 09:05:11;;;;;;;14.07;8.38;;;;;;;24.93;59.88;101672.59;5028605;28;20548;-90
2023/06/22 09:07:38;;;;;;;13.45;8.25;;;;;;;24.78;60.07;101639.50;5025413;28;20172;-90
2023/06/22 09:10:06;;;;;;;14.23;8.00;;;;;;;24.95;60.02;101678.84;5008844;28;20025;-91
2023/06/22 09:12:33;;;;;;;13.40;8.13;;;;;;;24.95;59.99;101661.03;5026250;28;20129;-92
2023/06/22 09:15:00;;;;;;;10.80;7.65;;;;;;;24.91;59.69;101663.66;5019301;28;20505;-93
2023/06/22 09:17:28;;;;;;;11.93;8.30;;;;;;;24.89;59.83;101662.75;5002701;28;20421;-94
2023/06/22 09:19:55;;;;;;;11.80;8.02;;;;;;;24.96;59.85;101675.31;5029445;28;20025;-92
2023/06/22 09:22:29;;;;;;;13.20;7.70;;;;;;;24.95;59.68;101676.16;5029888;28;20044;-89
2023/06/22 09:24:59;;;;;;;12.65;8.25;;;;;;;24.96;59.72;101680.66;5011557;28;20026;-91
2023/06/22 09:27:26;;;;;;;11.73;7.97;;;;;;;24.81;59.79;101646.66;5029758;28;20085;-94
2023/06/22 09:30:06;;;;;;;15.75;8.38;;;;;;;24.95;59.62;101676.16;5012039;28;20028;-92
2023/06/22 09:32:33;;;;;;;13.75;7.65;;;;;;;24.96;59.73;101673.50;5008107;28;20057;-91
2023/06/22 09:35:06;;;;;;;12.75;7.72;;;;;;;24.95;59.63;101662.81;5033440;28;20411;-92
2023/06/22 09:37:33;;;;;;;11.13;7.45;;;;;;;24.87;59.67;101643.13;5010369;28;20033;-93
2023/06/22 09:40:22;;;;;;;12.90;7.57;;;;;;;25.01;59.76;101672.66;5024871;28;20037;-90
2023/06/22 09:42:52;;;;;;;10.32;7.35;;;;;;;25.02;59.65;101670.00;4988201;28;20024;-91
2023/06/22 09:45:18;;;;;;;12.70;8.27;;;;;;;25.01;59.82;101670.88;5008735;28;20186;-91
2023/06/22 09:47:50;;;;;;;;;;;;;;;25.04;59.81;101672.69;4992996;28;20497;-91
2023/06/22 09:50:18;;;;;;;12.05;8.18;;;;;;;24.84;60.61;101644.00;4998967;28;19909;-93
2023/06/22 09:52:46;;;;;;;12.25;8.73;;;;;;;24.94;60.71;101650.34;4998869;28;20106;-90
2023/06/22 09:55:11;;;;;;;10.82;8.13;;;;;;;24.89;60.61;101646.72;5022259;28;20029;-91
2023/06/22 09:57:37;;;;;;;;;;;;;;;25.06;60.30;101671.84;4998815;28;20013;-91
2023/06/22 10:00:09;;;;;;;8.98;7.60;;;;;;;25.05;60.40;101678.03;5000610;28;20388;-91
2023/06/22 10:02:58;;;;;;;12.73;7.88;;;;;;;25.06;60.02;101674.50;5021161;28;20017;-93
2023/06/22 10:05:26;;;;;;;11.07;7.70;;;;;;;25.08;60.41;101670.06;4989688;28;20016;-92
2023/06/22 10:07:52;;;;;;;12.88;8.07;;;;;;;25.10;60.04;101665.59;5032929;28;20022;-93
2023/06/22 10:10:23;;;;;;;11.80;7.88;;;;;;;25.08;60.39;101666.47;4990667;28;20021;-94
2023/06/22 10:12:55;;;;;;;13.13;8.38;;;;;;;25.11;60.48;101669.19;5024855;28;20050;-93
2023/06/22 10:15:49;;;;;;;10.60;7.85;;;;;;;25.12;60.45;101668.28;5009948;28;20030;-93
2023/06/22 10:18:16;;;;;;;12.93;7.90;;;;;;;25.08;60.72;101667.41;5026971;28;20026;-91
2023/06/22 10:20:42;;;;;;;11.07;8.18;;;;;;;25.12;60.42;101665.63;4992757;28;20025;-92
2023/06/22 10:23:14;;;;;;;;;;;;;;;25.14;60.36;101672.75;5001748;28;20048;-90
2023/06/22 10:25:40;;;;;;;10.05;7.88;;;;;;;24.99;60.33;101637.91;4999715;28;19921;-91
2023/06/22 10:28:05;;;;;;;;;;;;;;;25.17;60.37;101671.91;5004635;28;20030;-89
2023/06/22 10:30:36;;;;;;;9.82;8.32;;;;;;;25.14;60.70;101664.75;5010878;28;20300;-93
2023/06/22 10:33:03;;;;;;;13.82;8.38;;;;;;;25.13;60.47;101654.06;5033675;28;20037;-92
2023/06/22 10:35:31;;;;;;;10.95;8.05;;;;;;;25.21;60.19;101662.16;5006882;28;20026;-92
2023/06/22 10:38:06;;;;;;;11.95;8.68;;;;;;;25.15;60.70;101657.66;5022640;28;20046;-93
2023/06/22 10:40:53;;;;;;;11.65;8.77;;;;;;;25.22;60.46;101661.28;5014570;28;20037;-92
2023/06/22 10:43:19;;;;;;;12.63;8.48;;;;;;;25.21;60.20;101648.78;5032490;28;20030;-91
2023/06/22 10:45:52;;;;;;;;;;;;;;;25.27;60.26;101646.16;5031573;28;20088;-93
2023/06/22 10:48:18;;;;;;;12.45;8.27;;;;;;;25.25;60.58;101648.84;5000684;28;20000;-91
2023/06/22 10:50:43;;;;;;;;;;;;;;;25.24;60.44;101649.72;4997909;28;20025;-90
2023/06/22 10:53:12;;;;;;;12.60;8.93;;;;;;;25.05;60.99;101608.56;5013496;28;19916;-90
2023/06/22 10:55:39;;;;;;;13.43;8.75;;;;;;;25.16;61.01;101622.88;5014158;28;20045;-91
2023/06/22 10:58:21;;;;;;;12.68;9.35;;;;;;;25.14;60.79;101611.28;5023083;28;20049;-91
2023/06/22 11:00:49;;;;;;;12.15;8.82;;;;;;;25.17;60.95;101619.34;4994844;28;20057;-95
2023/06/22 11:03:14;;;;;;;12.13;7.95;;;;;;;25.31;60.77;101643.53;5014165;28;20022;-91
2023/06/22 11:05:41;;;;;;;;;;;;;;;25.34;60.84;101637.31;5025330;28;20036;-91
2023/06/22 11:08:13;;;;;;;13.20;9.05;;;;;;;25.27;60.88;101624.78;5009419;28;19952;-92
2023/06/22 11:10:41;;;;;;;11.07;8.65;;;;;;;25.22;60.90;101618.53;5013867;28;20034;-91
2023/06/22 11:13:09;;;;;;;12.57;8.82;;;;;;;25.32;60.66;101637.31;5011636;28;20057;-91
2023/06/22 11:15:41;;;;;;;12.02;9.57;;;;;;;25.27;60.69;101622.09;5013874;28;20125;-93
2023/06/22 11:18:09;;;;;;;12.65;8.95;;;;;;;25.30;60.86;101616.81;4993552;28;20029;-90
2023/06/22 11:20:38;;;;;;;12.95;9.02;;;;;;;25.30;60.83;101622.16;5026703;28;20525;-92
2023/06/22 11:23:13;;;;;;;12.32;8.98;;;;;;;25.34;61.11;101626.63;4998115;28;20477;-92
2023/06/22 11:25:46;;;;;;;15.43;9.75;;;;;;;25.36;61.80;101632.88;5020731;28;20021;-90
2023/06/22 11:28:26;;;;;;;14.70;8.50;;;;;;;25.42;60.79;101626.66;5002051;28;20460;-93
2023/06/22 11:30:56;;;;;;;12.73;8.60;;;;;;;25.42;60.68;101629.34;4978836;28;20026;-92
2023/06/22 11:33:25;;;;;;;13.10;8.82;;;;;;;25.37;60.70;101627.53;5030935;28;20070;-92
2023/06/22 11:35:51;;;;;;;11.93;8.88;;;;;;;25.29;61.42;101602.50;5008088;28;20059;-92
2023/06/22 11:38:26;;;;;;;13.85;9.02;;;;;;;25.40;60.85;101624.00;5031804;28;20033;-91
2023/06/22 11:40:52;;;;;;;11.88;9.23;;;;;;;25.40;61.19;101621.31;5013492;28;20037;-92
2023/06/22 11:43:18;;;;;;;;;;;;;;;25.46;60.65;101626.69;4980390;28;20113;-93
2023/06/22 11:45:48;;;;;;;12.35;9.00;;;;;;;25.41;60.74;101606.16;5025749;28;19909;-92
2023/06/22 11:48:17;;;;;;;14.43;9.38;;;;;;;25.46;60.60;101628.47;5046141;28;20064;-95